Date,TemperatureHighF,TemperatureAvgF,TemperatureLowF,DewpointHighF,DewpointAvgF,DewpointLowF,HumidityHigh,HumidityAvg,HumidityLow,PressureMaxIn,PressureMinIn,WindSpeedMaxMPH,WindSpeedAvgMPH,GustSpeedMaxMPH,PrecipitationSumIn
2013-1-1,16,8,4,8,4,0,92,82,69,30.28,30.20,4,0,12,0.01
2013-1-2,27,18,8,22,13,3,88,81,59,30.24,30.08,8,1,15,0.00
2013-1-3,27,26,25,25,23,21,92,90,82,30.17,30.11,8,1,13,0.00
2013-1-4,32,21,11,25,17,8,91,84,72,30.28,30.15,3,1,15,0.00
2013-1-5,35,32,17,33,30,15,95,93,79,30.24,29.92,11,4,16,0.09
2013-1-6,35,23,12,33,20,10,96,86,78,30.33,29.91,12,1,14,0.00
2013-1-7,38,28,12,30,23,10,93,82,65,30.32,30.07,17,3,23,0.01
2013-1-8,42,35,25,34,30,23,92,82,73,30.12,29.98,11,2,17,0.02
2013-1-9,41,35,25,35,30,23,94,81,63,30.48,29.98,11,1,21,0.00
2013-1-10,44,33,23,38,30,22,97,87,59,30.48,29.85,6,2,15,0.69
2013-1-11,51,45,38,48,44,38,98,96,90,29.84,29.60,7,3,20,0.15
2013-1-12,51,30,23,47,26,20,90,82,75,30.01,29.62,12,2,18,0.00
2013-1-13,23,22,21,21,19,16,91,86,81,30.02,29.90,11,2,13,0.00
2013-1-14,24,18,8,15,11,4,88,74,61,30.49,30.28,5,0,9,0.00
2013-1-15,30,19,8,18,13,6,89,78,57,30.46,30.15,2,0,10,0.01
2013-1-16,35,27,12,31,22,10,91,81,67,30.14,29.85,5,1,18,0.01
2013-1-17,33,25,18,31,17,11,92,72,54,30.42,30.08,3,1,14,0.00
2013-1-18,44,33,17,35,27,13,90,79,69,30.43,29.89,11,5,31,0.02
2013-1-19,47,38,20,39,30,10,85,72,55,30.02,29.70,17,4,27,0.00
2013-1-20,20,15,12,11,7,4,72,69,66,30.22,30.02,14,4,21,0.00
2013-1-21,12,6,3,6,-3,-5,77,67,51,30.33,30.20,8,2,18,0.00
2013-1-22,12,6,-2,1,-3,-8,77,66,54,30.44,30.33,11,1,17,0.00
2013-1-23,21,15,11,14,8,1,84,73,63,30.37,30.14,10,1,12,0.00
2013-2-22,32,29,26,30,27,24,93,91,90,29.90,29.77,2,1,14,0.04
2013-2-23,30,24,18,23,20,14,90,83,72,29.99,29.90,3,1,16,0.14
2013-2-24,35,22,7,24,16,5,94,81,62,30.15,29.99,1,0,5,0.09
2013-2-25,41,28,13,31,23,11,94,82,64,30.17,29.98,2,0,8,0.00
2013-2-26,36,33,31,31,29,28,96,87,76,29.96,29.57,8,4,20,0.00
2013-2-27,31,30,29,30,29,28,96,95,94,29.64,29.59,12,5,15,0.00